Time;durP1;ratioP1;P1;durP2;ratioP2;P2;SDS_P1;SDS_P2;PMS_P1;PMS_P2;Temp;Humidity;BMP_temperature;BMP_pressure;BME280_temperature;BME280_humidity;BME280_pressure;Samples;Min_cycle;Max_cycle;Signal;HPM_P1;HPM_P2
2022/11/22 00:01:43;;;;;;;2.67;2.03;;;;;;;5.94;66.76;94098.97;4154890;28;20099;-55
2022/11/22 00:03:45;;;;;;;3.05;2.30;;;;;;;5.81;67.02;94093.25;4159731;28;20054;-51
2022/11/22 00:05:46;;;;;;;3.85;2.63;;;;;;;5.62;67.89;94096.75;4156457;28;20658;-50
2022/11/22 00:07:48;;;;;;;3.22;2.42;;;;;;;5.19;69.92;94094.75;4151608;28;20489;-51
2022/11/22 00:09:50;;;;;;;3.03;2.60;;;;;;;4.92;70.95;94097.09;4166000;28;20137;-55
2022/11/22 00:11:51;;;;;;;4.65;2.92;;;;;;;4.86;70.90;94089.91;4168773;28;20069;-55
2022/11/22 00:13:53;;;;;;;3.45;2.72;;;;;;;4.83;71.21;94102.31;4160434;28;20049;-54
2022/11/22 00:16:00;;;;;;;4.07;3.17;;;;;;;4.79;71.57;94108.75;4161771;28;20053;-54
2022/11/22 00:18:01;;;;;;;4.40;3.22;;;;;;;4.84;71.51;94107.38;4163542;28;20052;-53
2022/11/22 00:20:04;;;;;;;3.78;3.10;;;;;;;5.06;70.92;94106.25;4158911;28;20044;-52
2022/11/22 00:22:06;;;;;;;4.22;3.30;;;;;;;4.68;72.22;94107.94;4163474;28;20055;-55
2022/11/22 00:24:08;;;;;;;4.70;3.33;;;;;;;4.84;72.83;94116.91;4159417;28;20061;-52
2022/11/22 00:26:10;;;;;;;4.22;3.60;;;;;;;4.91;71.66;94110.25;4168326;28;20628;-51
2022/11/22 00:28:12;;;;;;;3.75;3.35;;;;;;;4.97;71.62;94106.25;4158212;28;20554;-54
2022/11/22 00:30:14;;;;;;;4.78;3.95;;;;;;;4.90;72.88;94109.44;4155503;28;20045;-54
2022/11/22 00:32:16;;;;;;;5.10;4.03;;;;;;;4.59;72.95;94100.16;4174908;28;20049;-54
2022/11/22 00:34:18;;;;;;;4.22;3.83;;;;;;;4.66;73.71;94102.06;4176813;28;20061;-56
2022/11/22 00:36:19;;;;;;;4.15;3.75;;;;;;;4.49;73.35;94111.34;4157007;28;20084;-55
2022/11/22 00:38:21;;;;;;;4.40;3.95;;;;;;;4.49;73.40;94108.75;4151786;28;20072;-56
2022/11/22 00:40:22;;;;;;;6.25;4.32;;;;;;;4.25;74.05;94097.97;4164886;28;20084;-57
2022/11/22 00:42:25;;;;;;;5.80;4.88;;;;;;;4.22;75.22;94103.44;4164186;28;20068;-56
2022/11/22 00:44:26;;;;;;;5.68;4.85;;;;;;;4.14;75.01;94105.88;4163688;28;20108;-53
2022/11/22 00:46:28;;;;;;;8.25;5.75;;;;;;;4.04;75.53;94098.06;4164451;28;20461;-53
2022/11/22 00:48:30;;;;;;;6.65;5.30;;;;;;;4.06;75.19;94099.56;4160651;28;20045;-50
2022/11/22 00:50:32;;;;;;;7.05;5.20;;;;;;;4.01;76.08;94103.53;4169065;28;20077;-50
2022/11/22 00:52:33;;;;;;;6.97;4.80;;;;;;;3.99;76.25;94101.06;4157051;28;20049;-54
2022/11/22 00:54:35;;;;;;;5.07;4.03;;;;;;;3.96;75.45;94103.94;4158324;28;20057;-56
2022/11/22 00:56:36;;;;;;;5.75;4.80;;;;;;;4.05;75.39;94103.13;4158276;28;20060;-55
2022/11/22 00:58:38;;;;;;;6.18;4.70;;;;;;;4.12;75.11;94092.22;4165283;28;20049;-53
2022/11/22 01:00:40;;;;;;;5.18;4.50;;;;;;;4.36;75.29;94094.44;4170504;28;20048;-56
2022/11/22 01:02:42;;;;;;;5.35;4.65;;;;;;;4.59;73.94;94090.59;4161830;28;20107;-54
2022/11/22 01:04:43;;;;;;;5.88;5.15;;;;;;;4.72;73.49;94098.09;4162005;28;20076;-55
2022/11/22 01:06:45;;;;;;;5.43;4.60;;;;;;;4.87;72.83;94096.72;4168073;28;20068;-54
2022/11/22 01:08:47;;;;;;;6.28;5.43;;;;;;;4.89;72.03;94099.97;4159421;28;20061;-56
2022/11/22 01:10:57;;;;;;;4.88;4.15;;;;;;;4.99;72.54;94088.75;4159376;28;20139;-55
2022/11/22 01:12:58;;;;;;;5.88;5.00;;;;;;;5.07;72.19;94092.28;4162032;28;20095;-55
2022/11/22 01:15:00;;;;;;;5.30;4.32;;;;;;;5.22;71.97;94095.25;4162437;28;20661;-53
2022/11/22 01:17:02;;;;;;;6.10;4.45;;;;;;;5.37;71.24;94095.63;4161383;28;20129;-50
2022/11/22 01:19:04;;;;;;;6.10;5.05;;;;;;;5.52;70.94;94095.97;4162201;28;20049;-53
2022/11/22 01:21:06;;;;;;;5.30;4.28;;;;;;;5.65;70.11;94088.66;4150924;28;20097;-56
2022/11/22 01:23:07;;;;;;;5.15;4.55;;;;;;;5.74;70.12;94084.38;4155916;28;20045;-53
2022/11/22 01:25:09;;;;;;;5.00;4.03;;;;;;;5.84;69.75;94089.53;4169379;28;20129;-54
2022/11/22 01:27:11;;;;;;;5.75;4.25;;;;;;;5.86;69.70;94092.81;4164448;28;20457;-54
2022/11/22 01:29:14;;;;;;;4.82;4.22;;;;;;;5.80;69.63;94088.19;4162348;28;20104;-54
2022/11/22 01:31:28;;;;;;;4.60;3.92;;;;;;;5.62;68.97;94091.56;4164426;28;20489;-58
2022/11/22 01:33:33;;;;;;;4.88;4.25;;;;;;;5.62;70.14;94094.16;4170473;28;20104;-55
2022/11/22 01:35:35;;;;;;;5.85;4.40;;;;;;;5.67;70.13;94078.13;4173578;28;20219;-55
2022/11/22 01:37:36;;;;;;;4.85;4.20;;;;;;;5.70;69.50;94077.84;4174563;28;20570;-54
2022/11/22 01:39:38;;;;;;;5.03;4.47;;;;;;;5.64;69.18;94079.25;4148848;28;20169;-54
2022/11/22 01:41:40;;;;;;;5.97;4.70;;;;;;;5.64;69.89;94081.84;4157558;28;20103;-54
2022/11/22 01:43:41;;;;;;;4.93;4.43;;;;;;;5.70;70.29;94077.84;4155247;28;20063;-54
2022/11/22 01:45:49;;;;;;;6.50;4.88;;;;;;;5.73;69.92;94075.78;4162617;28;20049;-53
2022/11/22 01:47:51;;;;;;;5.07;4.57;;;;;;;5.78;69.50;94080.53;4160015;28;20045;-53
2022/11/22 01:49:56;;;;;;;6.53;4.72;;;;;;;5.77;69.46;94073.72;4161384;28;20508;-56
2022/11/22 01:52:03;;;;;;;5.43;4.22;;;;;;;5.74;69.14;94079.19;4152627;28;20061;-52
2022/11/22 01:54:11;;;;;;;10.43;7.75;;;;;;;5.51;69.32;94081.38;4147177;28;20050;-53
2022/11/22 01:56:15;;;;;;;8.60;5.03;;;;;;;5.54;70.29;94081.06;4155646;28;20129;-56
2022/11/22 01:58:18;;;;;;;6.75;4.22;;;;;;;5.45;69.83;94076.75;4151073;28;20054;-56
2022/11/22 02:00:20;;;;;;;4.68;4.03;;;;;;;5.49;69.47;94083.28;4159935;28;20486;-54
2022/11/22 02:02:21;;;;;;;4.95;4.00;;;;;;;5.47;69.55;94078.22;4147546;28;20559;-52
2022/11/22 02:04:26;;;;;;;5.78;4.90;;;;;;;5.48;70.26;94086.84;4153657;28;20056;-52
2022/11/22 02:06:37;;;;;;;5.13;4.15;;;;;;;5.52;70.47;94095.97;4151533;28;20140;-57
2022/11/22 02:09:06;;;;;;;5.85;3.85;;;;;;;5.54;70.18;94084.47;4158452;28;20077;-58
2022/11/22 02:11:10;;;;;;;5.75;4.45;;;;;;;5.55;69.73;94087.91;4153853;28;20421;-53
2022/11/22 02:13:12;;;;;;;5.27;4.23;;;;;;;5.53;69.46;94095.03;4163005;28;20216;-55
2022/11/22 02:15:14;;;;;;;7.57;4.50;;;;;;;5.52;69.91;94089.00;4159832;28;20275;-54
2022/11/22 02:17:16;;;;;;;7.47;4.78;;;;;;;5.56;69.63;94086.94;4153592;28;20045;-52
2022/11/22 02:19:42;;;;;;;6.03;4.35;;;;;;;5.63;70.09;94095.78;4161167;28;20091;-55
2022/11/22 02:21:48;;;;;;;5.43;4.22;;;;;;;5.70;69.74;94093.44;4170737;28;20052;-54
2022/11/22 02:24:20;;;;;;;5.15;4.32;;;;;;;5.70;69.29;94086.47;4175726;28;20718;-55
2022/11/22 02:26:26;;;;;;;6.03;4.50;;;;;;;5.67;70.16;94073.75;4161157;28;20592;-56
2022/11/22 02:28:30;;;;;;;6.53;5.00;;;;;;;5.65;70.27;94085.25;4167197;28;20069;-56
2022/11/22 02:30:32;;;;;;;6.25;4.50;;;;;;;5.64;69.92;94081.84;4177649;28;20061;-54
2022/11/22 02:32:33;;;;;;;6.20;4.65;;;;;;;5.64;69.89;94079.25;4158851;28;20088;-54
2022/11/22 02:34:48;;;;;;;5.35;4.40;;;;;;;5.63;69.71;94082.00;4176824;28;20051;-51
2022/11/22 02:36:52;;;;;;;4.50;3.95;;;;;;;5.60;69.66;94083.09;4163336;28;20049;-57
2022/11/22 02:38:53;;;;;;;;;;;;;;;5.56;70.05;94081.75;4167951;28;20477;-58
2022/11/22 02:40:58;;;;;;;10.63;7.95;;;;;;;5.57;69.80;94079.97;4170215;28;19921;-57
2022/11/22 02:43:05;;;;;;;9.13;7.28;;;;;;;5.56;70.28;94081.75;4165475;28;20049;-56
2022/11/22 02:45:07;;;;;;;10.18;8.05;;;;;;;5.57;71.11;94082.56;4178013;28;20053;-55
2022/11/22 02:47:08;;;;;;;11.93;9.00;;;;;;;5.61;70.81;94074.31;4161953;28;20107;-56
2022/11/22 02:49:10;;;;;;;12.00;9.82;;;;;;;5.61;70.52;94079.53;4145394;28;20486;-55
2022/11/22 02:51:15;;;;;;;13.38;9.10;;;;;;;5.69;70.51;94071.81;4161878;28;20054;-54
2022/11/22 02:53:17;;;;;;;11.25;8.55;;;;;;;5.71;69.88;94075.09;4170621;28;20456;-56
2022/11/22 02:55:19;;;;;;;10.15;7.97;;;;;;;5.74;70.70;94069.63;4160564;28;20437;-56
2022/11/22 02:57:21;;;;;;;6.30;5.22;;;;;;;5.74;69.63;94074.84;4160393;28;20060;-55
2022/11/22 02:59:22;;;;;;;5.68;4.75;;;;;;;5.69;69.49;94074.44;4147859;28;20057;-55
2022/11/22 03:01:24;;;;;;;5.68;4.90;;;;;;;5.71;70.12;94075.09;4157689;28;20042;-54
2022/11/22 03:03:26;;;;;;;5.57;4.60;;;;;;;5.69;69.58;94068.41;4159008;28;20049;-55
2022/11/22 03:05:27;;;;;;;5.30;4.80;;;;;;;5.59;70.49;94065.84;4159286;28;20440;-54
2022/11/22 03:07:29;;;;;;;6.53;5.05;;;;;;;5.56;70.95;94066.16;4159175;28;20049;-57
2022/11/22 03:09:31;;;;;;;6.78;5.50;;;;;;;5.59;71.00;94070.25;4151729;28;20144;-57
2022/11/22 03:11:33;;;;;;;7.25;5.63;;;;;;;5.63;71.13;94067.22;4160605;28;20045;-53
2022/11/22 03:13:35;;;;;;;5.95;5.00;;;;;;;5.66;70.75;94060.94;4172047;28;20061;-54
2022/11/22 03:15:37;;;;;;;6.00;5.40;;;;;;;5.72;70.76;94061.16;4164095;28;20088;-53
2022/11/22 03:17:38;;;;;;;5.63;4.68;;;;;;;5.79;70.23;94061.41;4172796;28;20366;-54
2022/11/22 03:19:40;;;;;;;5.47;4.78;;;;;;;5.80;69.87;94067.41;4144253;28;20058;-57
2022/11/22 03:21:42;;;;;;;6.18;4.57;;;;;;;5.82;69.80;94066.28;4150947;28;20512;-53
2022/11/22 03:23:44;;;;;;;7.72;4.85;;;;;;;5.82;69.47;94066.28;4147756;28;20054;-54
2022/11/22 03:25:45;;;;;;;5.50;4.90;;;;;;;5.82;69.78;94065.47;4160588;28;20103;-56
2022/11/22 03:27:47;;;;;;;6.85;5.15;;;;;;;5.80;69.19;94062.22;4176731;28;20360;-55
2022/11/22 03:29:49;;;;;;;5.40;4.82;;;;;;;5.75;69.44;94060.03;4157811;28;20053;-51
2022/11/22 03:31:51;;;;;;;5.00;4.40;;;;;;;5.70;70.02;94055.28;4156288;28;20202;-55
2022/11/22 03:33:53;;;;;;;5.15;4.50;;;;;;;5.69;70.05;94065.81;4174535;28;20608;-54
2022/11/22 03:35:57;;;;;;;5.55;4.78;;;;;;;5.66;70.06;94055.72;4165262;28;20183;-53
2022/11/22 03:37:59;;;;;;;5.88;4.75;;;;;;;5.69;70.23;94058.03;4145318;28;20100;-56
2022/11/22 03:40:00;;;;;;;6.57;4.63;;;;;;;5.63;70.21;94059.41;4159718;28;20057;-57
2022/11/22 03:42:02;;;;;;;6.40;5.18;;;;;;;5.54;70.94;94060.28;4151135;28;20065;-54
2022/11/22 03:44:04;;;;;;;9.60;4.95;;;;;;;5.51;70.63;94055.38;4155549;28;20126;-54
2022/11/22 03:46:06;;;;;;;6.28;5.35;;;;;;;5.53;70.59;94054.28;4174742;28;20107;-53
2022/11/22 03:48:07;;;;;;;6.93;5.25;;;;;;;5.50;70.50;94061.53;4166599;28;20437;-53
2022/11/22 03:50:09;;;;;;;6.60;4.88;;;;;;;5.51;70.61;94063.19;4163848;28;20128;-54
2022/11/22 03:52:11;;;;;;;5.05;4.50;;;;;;;5.47;70.63;94067.84;4172991;28;20044;-56
2022/11/22 03:54:12;;;;;;;6.63;5.35;;;;;;;5.52;71.13;94063.03;4170627;28;20053;-55
2022/11/22 03:56:14;;;;;;;6.25;4.93;;;;;;;5.58;70.58;94066.84;4176282;28;20068;-55
2022/11/22 03:58:16;;;;;;;5.47;4.57;;;;;;;5.58;70.22;94066.84;4166657;28;20060;-55
2022/11/22 04:00:17;;;;;;;5.70;4.78;;;;;;;5.58;69.94;94072.03;4145945;28;20061;-57
2022/11/22 04:02:19;;;;;;;6.43;5.40;;;;;;;5.57;70.44;94075.59;4150472;28;20525;-56
2022/11/22 04:04:21;;;;;;;6.50;5.30;;;;;;;5.49;70.77;94076.31;4157539;28;20045;-51
2022/11/22 04:06:23;;;;;;;7.70;5.47;;;;;;;5.48;70.92;94074.66;4157595;28;20045;-55
2022/11/22 04:08:25;;;;;;;5.68;4.95;;;;;;;5.50;70.88;94075.34;4150132;28;20046;-52
2022/11/22 04:10:26;;;;;;;6.93;5.13;;;;;;;5.46;71.15;94086.16;4159768;28;20631;-56
2022/11/22 04:12:29;;;;;;;5.80;5.10;;;;;;;5.46;71.23;94086.16;4147105;28;20052;-52
2022/11/22 04:16:51;;;;;;;6.50;5.15;;;;;;;5.50;70.92;94092.72;4163321;28;20115;-54
2022/11/22 04:18:52;;;;;;;6.55;5.22;;;;;;;5.48;71.02;94092.03;4162083;28;20041;-51
2022/11/22 04:23:19;;;;;;;7.35;5.45;;;;;;;5.31;71.24;94091.84;4145479;28;20204;-56
2022/11/22 04:25:21;;;;;;;7.35;5.90;;;;;;;5.32;71.55;94096.06;4146841;28;20434;-52
2022/11/22 04:27:23;;;;;;;5.82;5.13;;;;;;;5.29;71.02;94096.34;4147104;28;20111;-53
2022/11/22 04:29:24;;;;;;;8.88;5.85;;;;;;;5.24;71.55;94101.13;4153318;28;20402;-56
2022/11/22 04:33:46;;;;;;;7.45;5.93;;;;;;;5.27;71.14;94098.28;4162505;28;20049;-55
2022/11/22 04:35:48;;;;;;;7.57;5.75;;;;;;;5.24;71.21;94106.31;4156686;28;20054;-56
2022/11/22 04:37:50;;;;;;;8.35;5.95;;;;;;;5.26;71.42;94108.78;4154828;28;20102;-54
2022/11/22 04:39:52;;;;;;;7.22;5.95;;;;;;;5.25;71.63;94105.38;4159051;28;20135;-56
2022/11/22 04:46:35;;;;;;;6.63;5.43;;;;;;;5.14;71.61;94110.72;4153581;28;20049;-54
2022/11/22 04:48:38;;;;;;;7.53;5.05;;;;;;;5.15;71.81;94114.16;4157154;28;20119;-54
2022/11/22 04:53:00;;;;;;;7.13;6.03;;;;;;;5.12;71.79;94123.88;4155621;28;20054;-58
2022/11/22 04:55:02;;;;;;;6.88;5.60;;;;;;;5.07;71.43;94127.81;4156955;28;20421;-57
2022/11/22 04:57:04;;;;;;;7.90;5.38;;;;;;;5.09;72.19;94131.91;4163167;28;20136;-52
2022/11/22 04:59:05;;;;;;;8.32;6.00;;;;;;;5.11;71.28;94131.78;4147149;28;20541;-55
2022/11/22 05:01:07;;;;;;;6.03;5.30;;;;;;;5.12;71.53;94134.25;4154158;28;20054;-55
2022/11/22 05:03:09;;;;;;;7.90;6.00;;;;;;;5.09;71.43;94134.50;4162724;28;20128;-56
2022/11/22 05:05:11;;;;;;;7.45;5.90;;;;;;;5.13;71.82;94148.84;4150007;28;20049;-53
2022/11/22 05:07:13;;;;;;;7.45;5.65;;;;;;;5.13;71.18;94146.25;4158159;28;20513;-53
2022/11/22 05:09:15;;;;;;;7.35;5.70;;;;;;;5.13;71.52;94146.25;4150080;28;20046;-54
2022/11/22 05:11:17;;;;;;;9.82;6.80;;;;;;;5.12;71.54;94142.03;4153196;28;20111;-55
2022/11/22 05:13:20;;;;;;;9.00;6.38;;;;;;;5.07;71.52;94141.63;4156305;28;20103;-57
2022/11/22 05:15:22;;;;;;;9.07;6.32;;;;;;;5.11;71.55;94136.97;4150329;28;20145;-56
2022/11/22 05:17:24;;;;;;;9.27;6.28;;;;;;;5.07;71.63;94144.22;4176597;28;20140;-51
2022/11/22 05:19:25;;;;;;;8.95;6.32;;;;;;;4.98;71.58;94136.47;4157497;28;20045;-53
2022/11/22 05:21:28;;;;;;;8.13;6.45;;;;;;;5.04;72.38;94146.28;4159105;28;20180;-55
2022/11/22 05:25:51;;;;;;;8.55;7.07;;;;;;;5.07;72.04;94139.03;4145787;28;20096;-57
2022/11/22 05:27:53;;;;;;;11.95;7.47;;;;;;;5.12;71.73;94141.22;4152397;28;20060;-54
2022/11/22 05:29:55;;;;;;;12.95;7.65;;;;;;;5.16;71.50;94139.97;4162679;28;20064;-51
2022/11/22 05:31:56;;;;;;;15.15;8.82;;;;;;;5.24;72.06;94140.09;4163093;28;20155;-53
2022/11/22 05:33:58;;;;;;;11.60;8.38;;;;;;;5.24;71.09;94124.50;4162436;28;20081;-55
2022/11/22 05:36:01;;;;;;;11.40;8.63;;;;;;;5.28;70.96;94125.06;4155408;28;20149;-59
2022/11/22 05:38:02;;;;;;;11.77;8.27;;;;;;;5.30;71.50;94133.53;4156732;28;20485;-55
2022/11/22 05:40:04;;;;;;;11.65;8.88;;;;;;;5.31;71.52;94133.38;4168193;28;20445;-52
2022/11/22 05:42:06;;;;;;;13.20;9.65;;;;;;;5.31;70.76;94138.59;4169021;28;20050;-55
2022/11/22 05:44:08;;;;;;;12.10;8.82;;;;;;;5.33;70.45;94139.25;4149433;28;20050;-60
2022/11/22 05:46:21;;;;;;;12.65;8.98;;;;;;;5.35;70.40;94139.09;4160074;28;20190;-57
2022/11/22 05:48:25;;;;;;;11.38;8.50;;;;;;;5.38;70.64;94141.44;4153913;28;20053;-55
2022/11/22 05:50:27;;;;;;;11.95;8.52;;;;;;;5.40;70.36;94139.50;4150887;28;20049;-55
2022/11/22 05:52:29;;;;;;;13.68;9.02;;;;;;;5.44;70.89;94142.63;4146430;28;20145;-56
2022/11/22 05:54:30;;;;;;;14.13;9.25;;;;;;;5.50;71.10;94136.88;4157014;28;20132;-54
2022/11/22 05:56:32;;;;;;;14.18;9.25;;;;;;;5.50;70.56;94134.28;4154617;28;20137;-51
2022/11/22 05:58:34;;;;;;;11.50;9.07;;;;;;;5.56;70.74;94141.50;4159558;28;20152;-58
2022/11/22 06:00:36;;;;;;;12.98;9.65;;;;;;;5.61;69.63;94131.50;4149261;28;20128;-57
2022/11/22 06:02:37;;;;;;;16.65;11.85;;;;;;;5.61;69.76;94141.88;4155570;28;20053;-52
2022/11/22 06:04:39;;;;;;;18.67;11.55;;;;;;;5.67;69.63;94135.31;4155674;28;20049;-49
2022/11/22 06:06:41;;;;;;;17.27;12.63;;;;;;;5.67;69.46;94135.31;4149765;28;20154;-53
2022/11/22 06:08:45;;;;;;;16.88;11.85;;;;;;;5.73;70.18;94140.75;4144601;28;20042;-54
2022/11/22 06:10:47;;;;;;;17.25;11.18;;;;;;;5.76;69.42;94139.63;4165752;28;20592;-57
2022/11/22 06:12:49;;;;;;;18.05;11.43;;;;;;;5.82;69.40;94146.88;4177996;28;20053;-56
2022/11/22 06:14:51;;;;;;;19.60;12.63;;;;;;;5.85;69.32;94153.56;4178159;28;20056;-55
2022/11/22 06:16:56;;;;;;;15.85;11.98;;;;;;;5.99;69.79;94150.53;4177348;28;20457;-58
2022/11/22 06:18:58;;;;;;;16.83;11.10;;;;;;;6.07;69.55;94157.63;4163232;28;20421;-53
2022/11/22 06:21:02;;;;;;;14.43;10.57;;;;;;;6.07;68.79;94163.63;4171405;28;20130;-57
2022/11/22 06:23:03;;;;;;;13.90;9.70;;;;;;;5.97;69.12;94152.44;4176142;28;20496;-57
2022/11/22 06:25:06;;;;;;;13.35;9.82;;;;;;;6.01;69.08;94148.59;4177834;28;20111;-52
2022/11/22 06:27:08;;;;;;;13.27;10.38;;;;;;;6.03;69.52;94141.47;4151260;28;20080;-57
2022/11/22 06:29:09;;;;;;;12.80;10.10;;;;;;;6.05;69.16;94146.53;4177293;28;20145;-57
2022/11/22 06:31:16;;;;;;;14.80;10.95;;;;;;;6.09;69.32;94140.09;4177127;28;20081;-55
2022/11/22 06:33:18;;;;;;;14.68;10.95;;;;;;;6.19;69.42;94140.00;4175930;28;20114;-55
2022/11/22 06:35:20;;;;;;;14.48;10.18;;;;;;;6.21;69.36;94145.88;4161323;28;20076;-58
2022/11/22 06:37:22;;;;;;;12.10;9.40;;;;;;;6.28;69.24;94146.94;4165316;28;20143;-55
2022/11/22 06:39:23;;;;;;;12.68;9.93;;;;;;;6.36;69.03;94154.81;4162491;28;20077;-57
2022/11/22 06:41:27;;;;;;;13.60;9.85;;;;;;;6.42;69.27;94149.03;4161607;28;20052;-57
2022/11/22 06:43:29;;;;;;;15.50;10.65;;;;;;;6.33;68.59;94149.94;4159410;28;20159;-55
2022/11/22 06:45:31;;;;;;;14.30;9.43;;;;;;;6.36;68.45;94157.44;4161311;28;20300;-55
2022/11/22 06:47:33;;;;;;;14.70;9.45;;;;;;;6.41;68.16;94170.84;4160939;28;20417;-54
2022/11/22 06:49:35;;;;;;;15.25;10.05;;;;;;;6.43;68.68;94163.69;4161296;28;20449;-54
2022/11/22 06:51:36;;;;;;;12.63;8.90;;;;;;;6.52;68.29;94162.00;4159697;28;20314;-54
2022/11/22 06:53:38;;;;;;;10.85;9.05;;;;;;;6.62;67.95;94159.31;4159678;28;20053;-56
2022/11/22 06:55:48;;;;;;;13.60;8.40;;;;;;;6.77;68.73;94165.63;4161377;28;20049;-54
2022/11/22 06:57:53;;;;;;;10.07;8.25;;;;;;;6.85;67.97;94157.09;4153848;28;20477;-54
2022/11/22 06:59:55;;;;;;;11.80;9.30;;;;;;;6.97;68.20;94161.09;4144800;28;20049;-57
2022/11/22 07:01:57;;;;;;;12.15;9.52;;;;;;;7.04;67.55;94159.53;4156067;28;20049;-55
2022/11/22 07:04:06;;;;;;;10.30;8.57;;;;;;;7.08;66.50;94166.06;4155643;28;20367;-57
2022/11/22 07:06:09;;;;;;;10.73;8.15;;;;;;;7.05;66.06;94162.94;4153321;28;20061;-54
2022/11/22 07:08:11;;;;;;;10.10;7.28;;;;;;;7.02;65.31;94165.88;4159146;28;20462;-56
2022/11/22 07:10:14;;;;;;;10.82;7.68;;;;;;;6.89;65.26;94169.66;4162437;28;20515;-58
2022/11/22 07:12:16;;;;;;;10.13;7.93;;;;;;;6.72;66.66;94154.88;4157759;28;20429;-59
2022/11/22 07:14:18;;;;;;;11.93;8.63;;;;;;;6.66;66.32;94158.06;4151036;28;20136;-56
2022/11/22 07:16:20;;;;;;;10.38;8.55;;;;;;;6.74;67.02;94160.75;4161303;28;20370;-56
2022/11/22 07:18:22;;;;;;;10.82;9.02;;;;;;;6.82;67.16;94159.97;4160155;28;20115;-52
2022/11/22 07:20:24;;;;;;;13.60;9.40;;;;;;;6.83;66.48;94156.41;4154477;28;20096;-51
2022/11/22 07:22:27;;;;;;;10.30;8.43;;;;;;;6.90;66.38;94160.88;4156990;28;20049;-55
2022/11/22 07:24:29;;;;;;;9.93;8.27;;;;;;;6.88;65.97;94156.78;4144667;28;20156;-59
2022/11/22 07:26:30;;;;;;;11.60;8.35;;;;;;;6.93;66.32;94157.97;4163161;28;20064;-53
2022/11/22 07:28:32;;;;;;;11.40;9.00;;;;;;;7.04;66.38;94164.75;4176953;28;20549;-56
2022/11/22 07:30:34;;;;;;;10.85;8.27;;;;;;;7.02;65.44;94163.25;4173458;28;20080;-57
2022/11/22 07:32:45;;;;;;;10.70;8.35;;;;;;;6.86;65.69;94154.34;4166706;28;20083;-56
2022/11/22 07:34:47;;;;;;;12.48;8.60;;;;;;;6.74;66.46;94151.13;4176019;28;20517;-56
2022/11/22 07:36:49;;;;;;;11.55;9.13;;;;;;;6.84;67.04;94138.06;4176218;28;20437;-59
2022/11/22 07:38:57;;;;;;;12.20;9.30;;;;;;;7.04;67.29;94136.09;4166161;28;20046;-56
2022/11/22 07:40:59;;;;;;;12.15;8.80;;;;;;;7.13;65.92;94139.56;4147266;28;20148;-56
2022/11/22 07:43:01;;;;;;;11.93;9.63;;;;;;;6.96;66.13;94134.22;4150364;28;20150;-55
2022/11/22 07:45:03;;;;;;;13.13;10.90;;;;;;;6.92;66.06;94127.69;4153785;28;20149;-53
2022/11/22 07:47:05;;;;;;;11.73;9.68;;;;;;;6.98;66.54;94131.47;4154888;28;20081;-55
2022/11/22 07:49:12;;;;;;;14.52;9.98;;;;;;;7.01;66.20;94127.75;4158343;28;20050;-60
2022/11/22 07:51:14;;;;;;;10.35;7.70;;;;;;;7.02;64.91;94138.03;4155938;28;20074;-55
2022/11/22 07:53:16;;;;;;;11.50;7.57;;;;;;;7.04;65.56;94141.31;4142655;28;20128;-57
2022/11/22 07:55:17;;;;;;;11.75;8.15;;;;;;;7.09;65.23;94153.88;4155945;28;20121;-58
2022/11/22 07:57:19;;;;;;;10.43;8.40;;;;;;;7.16;65.92;94153.13;4157676;28;20050;-54
2022/11/22 07:59:21;;;;;;;11.85;8.00;;;;;;;7.20;65.20;94155.41;4144166;28;20081;-55
2022/11/22 08:01:22;;;;;;;10.73;8.25;;;;;;;7.29;64.87;94154.50;4152922;28;20113;-52
2022/11/22 08:03:24;;;;;;;9.80;7.57;;;;;;;7.30;64.32;94150.94;4159716;28;20046;-54
2022/11/22 08:05:29;;;;;;;9.23;7.65;;;;;;;7.35;64.56;94139.06;4144067;28;20162;-52
2022/11/22 08:07:31;;;;;;;9.88;7.50;;;;;;;7.31;64.14;94132.56;4149433;28;20042;-53
2022/11/22 08:09:33;;;;;;;10.70;7.90;;;;;;;7.38;64.35;94143.19;4156774;28;20053;-58
2022/11/22 08:11:35;;;;;;;9.98;6.93;;;;;;;7.33;64.13;94141.00;4150223;28;20050;-56
2022/11/22 08:13:38;;;;;;;11.18;8.00;;;;;;;7.35;63.47;94133.84;4171093;28;20447;-53
2022/11/22 08:15:39;;;;;;;11.60;8.18;;;;;;;7.34;64.11;94126.22;4176584;28;20132;-53
2022/11/22 08:17:41;;;;;;;10.20;7.75;;;;;;;7.32;63.76;94134.16;4172435;28;20136;-54
2022/11/22 08:19:43;;;;;;;10.77;7.93;;;;;;;7.35;63.91;94138.25;4160135;28;20651;-55
2022/11/22 08:21:45;;;;;;;11.35;8.07;;;;;;;7.39;63.99;94131.75;4162828;28;20045;-52
2022/11/22 08:23:47;;;;;;;10.20;7.93;;;;;;;7.45;64.79;94125.13;4148229;28;20058;-54
2022/11/22 08:25:49;;;;;;;11.65;8.48;;;;;;;7.52;64.23;94119.13;4150722;28;20064;-54
2022/11/22 08:27:51;;;;;;;13.05;8.32;;;;;;;7.55;64.27;94111.03;4176408;28;20314;-56
2022/11/22 08:29:52;;;;;;;10.00;7.60;;;;;;;7.63;63.89;94122.44;4176591;28;20049;-53
2022/11/22 08:31:54;;;;;;;8.32;6.85;;;;;;;7.70;63.81;94126.06;4175954;28;20091;-57
2022/11/22 08:33:56;;;;;;;9.18;7.30;;;;;;;7.74;63.43;94120.41;4175697;28;20202;-57
2022/11/22 08:35:57;;;;;;;10.75;7.65;;;;;;;7.82;63.08;94108.38;4176300;28;20152;-57
2022/11/22 08:37:59;;;;;;;13.57;7.82;;;;;;;7.87;63.55;94117.38;4172546;28;20053;-56
2022/11/22 08:40:01;;;;;;;13.18;8.82;;;;;;;7.86;62.95;94100.06;4165430;28;20049;-58
2022/11/22 08:42:03;;;;;;;13.10;8.70;;;;;;;7.85;62.79;94097.63;4167531;28;20452;-52
2022/11/22 08:44:04;;;;;;;10.95;8.25;;;;;;;7.76;62.81;94086.34;4159796;28;20049;-57
2022/11/22 08:46:06;;;;;;;11.77;8.82;;;;;;;7.74;63.18;94096.09;4145004;28;20050;-54
2022/11/22 08:48:07;;;;;;;11.85;9.23;;;;;;;7.79;63.82;94088.66;4157153;28;20393;-57
2022/11/22 08:50:09;;;;;;;15.18;9.50;;;;;;;7.80;64.23;94072.81;4179279;28;20139;-53
2022/11/22 08:52:11;;;;;;;16.00;9.48;;;;;;;7.84;63.89;94081.16;4166949;28;20441;-55
2022/11/22 08:54:14;;;;;;;12.18;9.85;;;;;;;7.83;63.71;94073.47;4174698;28;20068;-58
2022/11/22 08:56:16;;;;;;;11.48;9.93;;;;;;;7.83;63.56;94076.09;4169574;28;20049;-56
2022/11/22 08:58:18;;;;;;;12.23;10.20;;;;;;;7.84;63.69;94083.75;4170589;28;20045;-56
2022/11/22 09:00:19;;;;;;;13.80;10.48;;;;;;;7.87;63.54;94075.66;4176038;28;20045;-57
2022/11/22 09:02:22;;;;;;;19.88;10.65;;;;;;;7.87;63.34;94080.03;4158909;28;20156;-54
2022/11/22 09:04:23;;;;;;;12.90;8.90;;;;;;;7.71;63.23;94081.59;4147141;28;20079;-55
2022/11/22 09:06:25;;;;;;;13.95;10.00;;;;;;;7.71;63.79;94084.19;4146996;28;20054;-55
2022/11/22 09:08:46;;;;;;;10.65;9.15;;;;;;;7.75;64.05;94075.09;4145805;28;20481;-58
2022/11/22 09:11:08;;;;;;;10.40;8.55;;;;;;;7.84;62.90;94069.91;4157311;28;20076;-57
2022/11/22 09:13:10;;;;;;;17.83;12.45;;;;;;;7.89;62.89;94070.25;4178953;28;20129;-56
2022/11/22 09:15:12;;;;;;;12.43;9.15;;;;;;;7.78;62.54;94068.75;4165609;28;20136;-54
2022/11/22 09:17:14;;;;;;;13.80;10.02;;;;;;;7.77;63.22;94065.31;4147553;28;20058;-54
2022/11/22 09:19:18;;;;;;;12.13;9.90;;;;;;;7.83;63.53;94066.50;4158963;28;20513;-53
2022/11/22 09:21:20;;;;;;;19.58;11.20;;;;;;;7.87;64.32;94072.19;4152007;28;20133;-55
2022/11/22 09:23:22;;;;;;;15.43;11.60;;;;;;;7.94;64.29;94076.63;4160886;28;20104;-57
2022/11/22 09:25:23;;;;;;;15.05;11.18;;;;;;;7.94;63.85;94068.00;4162465;28;20053;-58
2022/11/22 09:27:25;;;;;;;14.88;10.77;;;;;;;8.04;64.33;94071.28;4159083;28;20085;-55
2022/11/22 09:29:27;;;;;;;14.30;12.02;;;;;;;8.08;64.28;94066.56;4146141;28;20108;-53
2022/11/22 09:31:30;;;;;;;14.88;11.43;;;;;;;8.10;64.03;94060.19;4167628;28;20056;-57
2022/11/22 09:33:33;;;;;;;15.98;11.23;;;;;;;8.13;63.89;94054.69;4151469;28;20107;-57
2022/11/22 09:35:35;;;;;;;14.55;11.32;;;;;;;8.09;63.74;94057.78;4162315;28;20485;-58
2022/11/22 09:37:37;;;;;;;17.73;11.25;;;;;;;8.04;64.40;94057.41;4152852;28;20049;-55
2022/11/22 09:39:39;;;;;;;14.55;10.13;;;;;;;7.70;64.38;94053.91;4162925;28;20084;-54
2022/11/22 09:42:10;;;;;;;15.10;10.32;;;;;;;7.37;65.77;94053.75;4178321;28;20172;-58
2022/11/22 09:44:17;;;;;;;17.05;10.68;;;;;;;7.44;66.75;94045.31;4165388;28;20053;-56
2022/11/22 09:46:28;;;;;;;16.75;10.57;;;;;;;7.51;65.78;94043.72;4154109;28;20076;-52
2022/11/22 09:48:48;;;;;;;15.55;10.02;;;;;;;7.08;66.30;94053.28;4176376;28;20079;-54
2022/11/22 09:51:05;;;;;;;14.73;11.10;;;;;;;7.16;66.65;94045.47;4148943;28;20088;-56
2022/11/22 09:53:17;;;;;;;13.55;10.52;;;;;;;7.37;66.39;94045.09;4158796;28;20123;-57
2022/11/22 09:55:44;;;;;;;13.98;11.18;;;;;;;7.43;66.33;94048.91;4148707;28;20145;-55
2022/11/22 09:58:03;;;;;;;17.08;12.55;;;;;;;7.61;66.92;94033.97;4156775;28;20056;-58
2022/11/22 10:00:09;;;;;;;12.60;10.52;;;;;;;7.81;66.25;94034.56;4170591;28;20049;-55